createdAt,value
2018-05-04T00:02:24.808Z,81.93
2018-05-04T00:05:28.109Z,82.09
2018-05-04T00:08:31.424Z,82.12
2018-05-04T00:11:34.729Z,82.11
2018-05-04T00:14:38.066Z,82.08
2018-05-04T00:17:42.134Z,82.06
2018-05-04T00:20:45.457Z,82.16
2018-05-04T00:23:48.757Z,82.26
2018-05-04T00:26:52.085Z,82.25
2018-05-04T00:29:55.385Z,82.20
2018-05-04T00:32:58.726Z,82.17
2018-05-04T00:36:02.035Z,82.33
2018-05-04T00:39:05.364Z,82.34
2018-05-04T00:42:09.433Z,82.32
2018-05-04T00:45:12.773Z,82.35
2018-05-04T00:48:16.851Z,82.42
2018-05-04T00:51:20.186Z,82.35
2018-05-04T00:54:24.258Z,82.34
2018-05-04T00:57:27.600Z,82.24
2018-05-04T01:00:30.942Z,81.69
2018-05-04T01:03:34.270Z,81.84
2018-05-04T01:06:37.582Z,81.97
2018-05-04T01:09:41.657Z,82.13
2018-05-04T01:12:44.957Z,82.32
2018-05-04T01:15:48.285Z,82.49
2018-05-04T01:18:52.366Z,82.47
2018-05-04T01:21:55.697Z,82.33
2018-05-04T01:24:59.761Z,82.61
2018-05-04T01:28:03.097Z,82.63
2018-05-04T01:31:06.393Z,82.56
2018-05-04T01:34:09.726Z,82.66
2018-05-04T01:37:13.034Z,82.58
2018-05-04T01:40:16.357Z,82.79
2018-05-04T01:43:19.667Z,83.19
2018-05-04T01:46:22.996Z,83.35
2018-05-04T01:49:27.065Z,83.60
2018-05-04T01:52:30.385Z,83.96
2018-05-04T01:55:35.610Z,84.22
2018-05-04T01:58:38.950Z,84.25
2018-05-04T02:01:43.025Z,84.07
2018-05-04T02:04:46.335Z,83.97
2018-05-04T02:07:49.723Z,83.91
2018-05-04T02:10:53.748Z,83.49
2018-05-04T02:13:57.057Z,83.65
2018-05-04T02:17:00.390Z,83.88
2018-05-04T02:20:03.690Z,84.81
2018-05-04T02:23:07.030Z,84.93
2018-05-04T02:26:10.342Z,84.82
2018-05-04T02:29:14.960Z,84.97
2018-05-04T02:32:18.262Z,85.30
2018-05-04T02:35:21.598Z,85.37
2018-05-04T02:38:24.906Z,85.28
2018-05-04T02:41:28.259Z,85.26
2018-05-04T02:44:31.573Z,85.26
2018-05-04T02:47:34.885Z,85.19
2018-05-04T02:50:38.229Z,84.93
2018-05-04T02:53:41.529Z,84.76
2018-05-04T02:56:44.859Z,84.69
2018-05-04T02:59:48.149Z,84.60
2018-05-04T03:02:51.522Z,84.62
2018-05-04T03:05:54.788Z,84.38
2018-05-04T03:08:58.109Z,84.37
2018-05-04T03:12:01.415Z,84.39
2018-05-04T03:15:04.740Z,84.50
2018-05-04T03:18:08.058Z,84.33
2018-05-04T03:21:11.381Z,84.31
2018-05-04T03:24:15.514Z,84.36
2018-05-04T03:27:18.900Z,84.41
2018-05-04T03:30:22.197Z,84.19
2018-05-04T03:33:25.517Z,84.08
2018-05-04T03:36:29.585Z,84.04
2018-05-04T03:39:32.947Z,84.08
2018-05-04T03:42:36.294Z,84.02
2018-05-04T03:45:39.605Z,83.94
2018-05-04T03:48:42.945Z,83.67
2018-05-04T03:51:46.272Z,83.35
2018-05-04T03:54:49.591Z,83.34
2018-05-04T03:58:10.334Z,83.33
2018-05-04T04:01:31.139Z,83.46
2018-05-04T04:04:34.463Z,83.55
2018-05-04T04:07:37.774Z,83.65
2018-05-04T04:10:41.110Z,83.88
2018-05-04T04:13:44.434Z,84.15
2018-05-04T04:16:47.795Z,84.36
2018-05-04T04:19:51.115Z,84.54
2018-05-04T04:22:54.433Z,84.67
2018-05-04T04:25:57.766Z,84.87
2018-05-04T04:29:01.075Z,85.02
2018-05-04T04:32:04.418Z,85.42
2018-05-04T04:35:07.727Z,85.45
2018-05-04T04:38:11.368Z,85.48
2018-05-04T04:41:14.702Z,85.57
2018-05-04T04:44:18.042Z,85.51
2018-05-04T04:47:21.362Z,85.56
2018-05-04T04:50:24.704Z,85.66
2018-05-04T04:53:28.027Z,85.79
2018-05-04T04:56:31.351Z,85.99
2018-05-04T04:59:34.674Z,86.39
2018-05-04T05:02:38.014Z,86.57
2018-05-04T05:05:41.314Z,86.70
2018-05-04T05:08:44.641Z,86.77
2018-05-04T05:11:47.967Z,86.91
2018-05-04T05:14:52.062Z,86.97
2018-05-04T05:17:55.361Z,87.61
2018-05-04T05:20:59.473Z,88.16
2018-05-04T05:24:02.801Z,88.74
2018-05-04T05:27:06.141Z,89.13
2018-05-04T05:30:09.446Z,89.32
2018-05-04T05:33:12.781Z,89.59
2018-05-04T05:36:16.103Z,89.51
2018-05-04T05:39:19.451Z,89.45
2018-05-04T05:42:22.862Z,89.25
2018-05-04T05:45:26.145Z,89.81
2018-05-04T05:48:29.457Z,90.15
2018-05-04T05:51:33.538Z,90.46
2018-05-04T05:54:36.923Z,90.38
2018-05-04T05:57:40.199Z,90.05
2018-05-04T06:00:43.514Z,89.60
2018-05-04T06:03:46.832Z,89.26
2018-05-04T06:06:50.144Z,89.09
2018-05-04T06:09:53.457Z,88.97
2018-05-04T06:12:57.581Z,88.90
2018-05-04T06:16:00.910Z,88.87
2018-05-04T06:19:04.249Z,88.93
2018-05-04T06:22:07.549Z,88.86
2018-05-04T06:25:10.967Z,88.49
2018-05-04T06:28:14.189Z,88.36
2018-05-04T06:31:17.518Z,88.06
2018-05-04T06:34:21.837Z,87.65
2018-05-04T06:37:25.166Z,87.04
2018-05-04T06:40:29.237Z,86.55
2018-05-04T06:43:32.557Z,85.83
2018-05-04T06:46:35.853Z,85.06
2018-05-04T06:49:39.186Z,84.23
2018-05-04T06:52:42.492Z,83.90
2018-05-04T06:55:45.807Z,82.98
2018-05-04T06:58:49.104Z,82.54
2018-05-04T07:01:52.416Z,82.35
2018-05-04T07:04:55.717Z,82.84
2018-05-04T07:07:59.046Z,82.93
2018-05-04T07:11:03.125Z,82.49
2018-05-04T07:14:06.452Z,82.15
2018-05-04T07:17:09.748Z,82.03
2018-05-04T07:20:13.060Z,81.59
2018-05-04T07:23:17.138Z,80.49
2018-05-04T07:26:20.473Z,81.17
2018-05-04T07:29:23.774Z,81.27
2018-05-04T07:32:27.085Z,81.46
2018-05-04T07:35:30.400Z,81.22
2018-05-04T07:38:33.698Z,81.40
2018-05-04T07:41:37.023Z,80.67
2018-05-04T07:44:40.341Z,78.87
2018-05-04T07:47:44.432Z,77.97
2018-05-04T07:50:47.737Z,77.39
2018-05-04T07:53:51.065Z,75.97
2018-05-04T07:56:54.382Z,75.32
2018-05-04T07:59:57.711Z,72.63
2018-05-04T08:03:01.046Z,71.96
2018-05-04T08:06:04.357Z,72.93
2018-05-04T08:09:07.665Z,71.75
2018-05-04T08:12:11.005Z,71.71
2018-05-04T08:15:14.318Z,71.30
2018-05-04T08:18:17.649Z,69.20
2018-05-04T08:21:20.965Z,69.86
2018-05-04T08:24:24.295Z,67.32
2018-05-04T08:27:27.640Z,68.46
2018-05-04T08:30:30.961Z,67.99
2018-05-04T08:33:34.287Z,64.99
2018-05-04T08:36:37.634Z,65.37
2018-05-04T08:39:40.950Z,63.97
2018-05-04T08:42:44.308Z,63.78
2018-05-04T08:45:47.623Z,62.05
2018-05-04T08:48:50.953Z,61.26
2018-05-04T08:51:54.274Z,60.60
2018-05-04T08:54:58.374Z,61.87
2018-05-04T08:58:01.701Z,61.16
2018-05-04T09:01:05.806Z,57.48
2018-05-04T09:04:09.920Z,56.29
2018-05-04T09:07:14.022Z,55.45
2018-05-04T09:10:17.336Z,57.21
2018-05-04T09:13:21.427Z,56.50
2018-05-04T09:16:24.783Z,56.99
2018-05-04T09:19:28.105Z,54.61
2018-05-04T09:22:31.458Z,54.49
2018-05-04T09:25:34.777Z,55.43
2018-05-04T09:28:38.097Z,54.49
2018-05-04T09:31:41.409Z,56.11
2018-05-04T09:34:44.740Z,57.99
2018-05-04T09:37:48.817Z,54.82
2018-05-04T09:40:52.171Z,54.54
2018-05-04T09:43:55.491Z,54.26
2018-05-04T09:46:58.821Z,53.61
2018-05-04T09:50:02.130Z,55.17
2018-05-04T09:53:06.223Z,56.05
2018-05-04T09:56:09.620Z,53.80
2018-05-04T09:59:13.658Z,53.19
2018-05-04T10:02:17.729Z,54.24
2018-05-04T10:05:21.063Z,53.95
2018-05-04T10:08:25.938Z,54.64
2018-05-04T10:11:29.258Z,55.35
2018-05-04T10:14:32.582Z,52.67
2018-05-04T10:17:35.886Z,49.47
2018-05-04T10:20:39.989Z,51.70
2018-05-04T10:23:43.317Z,50.12
2018-05-04T10:26:46.660Z,51.07
2018-05-04T10:29:49.972Z,50.50
2018-05-04T10:32:53.350Z,51.22
2018-05-04T10:35:56.656Z,54.12
2018-05-04T10:39:00.085Z,49.26
2018-05-04T10:42:03.289Z,50.92
2018-05-04T10:45:07.467Z,53.18
2018-05-04T10:48:11.472Z,51.44
2018-05-04T10:51:14.818Z,51.32
2018-05-04T10:54:18.896Z,50.44
2018-05-04T10:57:22.213Z,51.96
2018-05-04T11:00:26.192Z,53.37
2018-05-04T11:03:29.525Z,53.54
2018-05-04T11:06:32.829Z,52.43
2018-05-04T11:09:36.910Z,51.86
2018-05-04T11:12:40.209Z,49.90
2018-05-04T11:15:43.526Z,50.09
2018-05-04T11:18:46.826Z,50.22
2018-05-04T11:21:50.921Z,49.22
2018-05-04T11:24:54.225Z,48.27
2018-05-04T11:27:57.636Z,50.66
2018-05-04T11:31:00.932Z,52.98
2018-05-04T11:34:04.254Z,49.32
2018-05-04T11:37:07.561Z,51.92
2018-05-04T11:40:10.893Z,47.44
2018-05-04T11:43:14.198Z,47.76
2018-05-04T11:46:17.525Z,48.82
2018-05-04T11:49:22.571Z,49.78
2018-05-04T11:52:26.975Z,49.44
2018-05-04T11:55:31.069Z,49.47
2018-05-04T11:58:34.402Z,53.04
2018-05-04T12:01:37.816Z,51.08
2018-05-04T12:04:41.186Z,50.13
2018-05-04T12:07:45.274Z,49.29
2018-05-04T12:10:48.668Z,50.76
2018-05-04T12:13:51.955Z,49.34
2018-05-04T12:16:55.301Z,50.64
2018-05-04T12:19:59.398Z,47.56
2018-05-04T12:23:02.718Z,49.37
2018-05-04T12:26:06.022Z,45.87
2018-05-04T12:29:09.445Z,49.44
2018-05-04T12:32:12.752Z,49.84
2018-05-04T12:35:16.076Z,52.87
2018-05-04T12:38:19.379Z,50.21
2018-05-04T12:41:23.466Z,50.30
2018-05-04T12:44:26.766Z,46.75
2018-05-04T12:47:30.077Z,46.13
2018-05-04T12:50:33.372Z,47.94
2018-05-04T12:53:36.784Z,47.24
2018-05-04T12:56:40.031Z,45.28
2018-05-04T12:59:44.104Z,46.71
2018-05-04T13:02:48.193Z,47.58
2018-05-04T13:05:51.493Z,48.79
2018-05-04T13:08:54.806Z,48.11
2018-05-04T13:11:58.878Z,48.52
2018-05-04T13:15:02.198Z,46.44
2018-05-04T13:18:05.506Z,46.28
2018-05-04T13:21:08.834Z,46.45
2018-05-04T13:24:12.145Z,47.70
2018-05-04T13:27:15.482Z,46.72
2018-05-04T13:30:18.785Z,46.71
2018-05-04T13:33:22.127Z,49.69
2018-05-04T13:36:25.427Z,50.75
2018-05-04T13:39:28.757Z,47.77
2018-05-04T13:42:32.056Z,48.34
2018-05-04T13:45:35.394Z,46.02
2018-05-04T13:48:39.874Z,45.23
2018-05-04T13:51:42.797Z,43.93
2018-05-04T13:54:46.880Z,45.46
2018-05-04T13:57:50.278Z,48.73
2018-05-04T14:00:53.525Z,46.47
2018-05-04T14:03:56.882Z,46.39
2018-05-04T14:07:00.182Z,45.32
2018-05-04T14:10:03.538Z,45.52
2018-05-04T14:13:06.852Z,44.84
2018-05-04T14:16:10.219Z,48.98
2018-05-04T14:19:13.549Z,45.17
2018-05-04T14:22:16.868Z,45.53
2018-05-04T14:25:20.203Z,48.54
2018-05-04T14:28:23.513Z,47.47
2018-05-04T14:31:26.886Z,45.88
2018-05-04T14:34:30.962Z,45.35
2018-05-04T14:37:34.303Z,48.24
2018-05-04T14:40:37.641Z,48.41
2018-05-04T14:43:40.954Z,45.13
2018-05-04T14:46:44.287Z,45.44
2018-05-04T14:49:47.600Z,48.44
2018-05-04T14:52:50.917Z,47.71
2018-05-04T14:55:54.254Z,43.38
2018-05-04T14:58:57.553Z,44.33
2018-05-04T15:02:00.896Z,43.68
2018-05-04T15:05:04.202Z,44.15
2018-05-04T15:08:07.543Z,44.68
2018-05-04T15:11:11.622Z,43.95
2018-05-04T15:14:14.977Z,45.01
2018-05-04T15:17:18.361Z,44.48
2018-05-04T15:20:21.619Z,43.83
2018-05-04T15:23:24.921Z,42.71
2018-05-04T15:26:28.258Z,45.63
2018-05-04T15:29:32.338Z,42.55
2018-05-04T15:32:35.667Z,43.68
2018-05-04T15:35:39.729Z,42.26
2018-05-04T15:38:43.058Z,42.46
2018-05-04T15:41:46.360Z,40.75
2018-05-04T15:44:49.679Z,41.04
2018-05-04T15:47:52.996Z,40.69
2018-05-04T15:51:01.910Z,40.82
2018-05-04T15:54:05.213Z,40.90
2018-05-04T15:57:08.530Z,41.52
2018-05-04T16:00:11.852Z,39.92
2018-05-04T16:03:15.161Z,40.01
2018-05-04T16:06:18.468Z,40.83
2018-05-04T16:09:21.766Z,40.12
2018-05-04T16:12:25.896Z,39.06
2018-05-04T16:15:29.965Z,39.38
2018-05-04T16:18:33.300Z,41.63
2018-05-04T16:21:37.383Z,44.06
2018-05-04T16:24:40.704Z,44.35
2018-05-04T16:27:44.009Z,45.54
2018-05-04T16:30:47.343Z,45.11
2018-05-04T16:33:50.645Z,46.23
2018-05-04T16:36:53.946Z,48.89
2018-05-04T16:39:57.249Z,47.68
2018-05-04T16:43:00.593Z,48.36
2018-05-04T16:46:04.661Z,50.57
2018-05-04T16:52:41.577Z,51.06
2018-05-04T16:55:44.917Z,52.82
2018-05-04T16:58:48.226Z,52.47
2018-05-04T17:01:51.651Z,52.10
2018-05-04T17:04:54.957Z,51.36
2018-05-04T17:07:58.268Z,51.68
2018-05-04T17:11:01.577Z,51.72
2018-05-04T17:14:05.677Z,53.26
2018-05-04T17:17:08.981Z,53.78
2018-05-04T17:20:12.297Z,53.10
2018-05-04T17:23:16.373Z,54.36
2018-05-04T17:26:19.704Z,54.69
2018-05-04T17:29:23.774Z,55.17
2018-05-04T17:32:27.125Z,55.83
2018-05-04T17:35:30.430Z,55.74
2018-05-04T17:38:33.757Z,56.42
2018-05-04T17:41:37.052Z,56.29
2018-05-04T17:44:40.369Z,56.35
2018-05-04T17:47:43.668Z,57.24
2018-05-04T17:50:46.999Z,56.60
2018-05-04T17:53:51.077Z,57.10
2018-05-04T17:56:54.403Z,57.96
2018-05-04T17:59:58.521Z,58.27
2018-05-04T18:03:02.666Z,58.04
2018-05-04T18:06:05.951Z,58.75
2018-05-04T18:09:09.260Z,59.09
2018-05-04T18:12:12.634Z,59.55
2018-05-04T18:15:16.709Z,58.69
2018-05-04T18:18:20.024Z,59.41
2018-05-04T18:21:24.098Z,59.73
2018-05-04T18:24:27.424Z,59.80
2018-05-04T18:27:30.724Z,59.63
2018-05-04T18:30:34.056Z,60.13
2018-05-04T18:33:37.360Z,60.54
2018-05-04T18:36:40.672Z,60.86
2018-05-04T18:39:43.993Z,61.10
2018-05-04T18:42:47.301Z,61.59
2018-05-04T18:45:50.733Z,62.15
2018-05-04T18:48:54.805Z,62.57
2018-05-04T18:51:58.134Z,62.96
2018-05-04T18:55:02.202Z,62.98
2018-05-04T18:58:05.537Z,63.05
2018-05-04T19:01:09.604Z,62.42
2018-05-04T19:04:12.917Z,62.42
2018-05-04T19:07:16.985Z,62.66
2018-05-04T19:10:20.314Z,62.82
2018-05-04T19:13:23.617Z,62.84
2018-05-04T19:16:26.937Z,63.11
2018-05-04T19:19:30.239Z,63.21
2018-05-04T19:22:33.554Z,63.40
2018-05-04T19:25:37.617Z,63.46
2018-05-04T19:28:40.938Z,63.79
2018-05-04T19:31:44.241Z,63.84
2018-05-04T19:34:47.580Z,63.61
2018-05-04T19:37:50.888Z,63.87
2018-05-04T19:40:54.218Z,64.23
2018-05-04T19:43:57.525Z,64.63
2018-05-04T19:47:00.878Z,64.95
2018-05-04T19:50:04.200Z,65.37
2018-05-04T19:53:08.383Z,65.61
2018-05-04T19:56:11.689Z,65.98
2018-05-04T19:59:15.005Z,65.62
2018-05-04T20:02:18.310Z,65.47
2018-05-04T20:05:21.625Z,65.35
2018-05-04T20:08:24.949Z,65.33
2018-05-04T20:11:29.017Z,65.70
2018-05-04T20:14:32.352Z,66.19
2018-05-04T20:17:36.424Z,66.46
2018-05-04T20:20:39.750Z,66.81
2018-05-04T20:23:43.059Z,66.90
2018-05-04T20:26:46.405Z,66.41
2018-05-04T20:29:49.704Z,66.22
2018-05-04T20:32:53.033Z,66.02
2018-05-04T20:35:56.343Z,66.16
2018-05-04T20:39:00.424Z,66.38
2018-05-04T20:42:03.718Z,66.79
2018-05-04T20:45:07.037Z,66.76
2018-05-04T20:48:10.434Z,66.94
2018-05-04T20:51:13.758Z,67.04
2018-05-04T20:54:17.053Z,67.25
2018-05-04T20:57:21.128Z,67.59
2018-05-04T21:00:24.425Z,67.95
2018-05-04T21:03:27.743Z,68.11
2018-05-04T21:06:31.802Z,68.16
2018-05-04T21:09:35.122Z,68.34
2018-05-04T21:12:38.450Z,68.52
2018-05-04T21:15:42.532Z,68.49
2018-05-04T21:18:45.838Z,68.44
2018-05-04T21:21:49.152Z,68.40
2018-05-04T21:24:52.449Z,68.49
2018-05-04T21:27:55.754Z,68.60
2018-05-04T21:30:59.813Z,68.72
2018-05-04T21:34:03.137Z,68.76
2018-05-04T21:37:06.438Z,68.84
2018-05-04T21:40:09.746Z,68.93
2018-05-04T21:43:13.042Z,69.04
2018-05-04T21:46:16.362Z,69.15
2018-05-04T21:49:20.430Z,69.21
2018-05-04T21:52:23.740Z,69.29
2018-05-04T21:55:27.037Z,69.40
2018-05-04T21:58:30.366Z,69.58
2018-05-04T22:01:33.667Z,69.80
2018-05-04T22:04:37.003Z,70.02
2018-05-04T22:07:40.317Z,70.22
2018-05-04T22:10:43.613Z,70.52
2018-05-04T22:13:46.924Z,70.81
2018-05-04T22:16:50.216Z,70.95
2018-05-04T22:19:53.533Z,71.23
2018-05-04T22:22:57.594Z,71.75
2018-05-04T22:26:01.685Z,71.64
2018-05-04T22:29:04.977Z,71.70
2018-05-04T22:32:08.285Z,72.16
2018-05-04T22:35:11.578Z,72.69
2018-05-04T22:38:14.901Z,73.14
2018-05-04T22:41:18.206Z,73.60
2018-05-04T22:44:22.302Z,74.18
2018-05-04T22:47:25.601Z,74.47
2018-05-04T22:50:28.924Z,74.89
2018-05-04T22:53:32.217Z,75.02
2018-05-04T22:56:35.625Z,75.20
2018-05-04T22:59:38.861Z,75.46
2018-05-04T23:02:42.174Z,75.57
2018-05-04T23:05:45.464Z,75.70
2018-05-04T23:08:48.768Z,75.84
2018-05-04T23:11:52.069Z,75.95
2018-05-04T23:14:55.369Z,76.04
2018-05-04T23:17:58.681Z,76.07
2018-05-04T23:21:02.018Z,76.19
2018-05-04T23:24:05.317Z,76.29
2018-05-04T23:27:09.373Z,76.34
2018-05-04T23:30:12.696Z,76.42
2018-05-04T23:33:15.984Z,76.56
2018-05-04T23:36:19.309Z,76.58
2018-05-04T23:39:23.360Z,76.68
2018-05-04T23:42:26.673Z,76.77
2018-05-04T23:45:29.964Z,76.90
2018-05-04T23:48:33.279Z,77.05
2018-05-04T23:51:36.568Z,77.24
2018-05-04T23:54:39.880Z,77.41
2018-05-04T23:57:43.172Z,77.69
